sensor_id;sensor_type;location;lat;lon;timestamp;pressure;altitude;pressure_sealevel;temperature;humidity
71361;BME280;59166;48.908;1.870;2023-02-13T00:04:19;102155.56;;;2.97;100.00
71361;BME280;59166;48.908;1.870;2023-02-13T00:09:19;102157.88;;;2.84;100.00
71361;BME280;59166;48.908;1.870;2023-02-13T00:14:21;102156.03;;;2.77;100.00
71361;BME280;59166;48.908;1.870;2023-02-13T00:19:22;102159.19;;;2.72;100.00
71361;BME280;59166;48.908;1.870;2023-02-13T00:24:23;102158.69;;;2.69;100.00
71361;BME280;59166;48.908;1.870;2023-02-13T00:29:25;102149.19;;;2.66;100.00
71361;BME280;59166;48.908;1.870;2023-02-13T00:34:25;102152.50;;;2.68;100.00
71361;BME280;59166;48.908;1.870;2023-02-13T00:39:26;102152.66;;;2.66;100.00
71361;BME280;59166;48.908;1.870;2023-02-13T00:44:28;102152.50;;;2.68;100.00
71361;BME280;59166;48.908;1.870;2023-02-13T00:49:29;102150.00;;;2.66;100.00
71361;BME280;59166;48.908;1.870;2023-02-13T00:54:30;102141.34;;;2.64;100.00
71361;BME280;59166;48.908;1.870;2023-02-13T00:59:32;102139.81;;;2.54;100.00
71361;BME280;59166;48.908;1.870;2023-02-13T01:04:32;102142.75;;;2.43;100.00
71361;BME280;59166;48.908;1.870;2023-02-13T01:09:33;102137.75;;;2.32;100.00
71361;BME280;59166;48.908;1.870;2023-02-13T01:14:35;102135.94;;;2.32;100.00
71361;BME280;59166;48.908;1.870;2023-02-13T01:19:36;102131.72;;;2.30;100.00
71361;BME280;59166;48.908;1.870;2023-02-13T01:24:37;102126.72;;;2.27;100.00
71361;BME280;59166;48.908;1.870;2023-02-13T01:29:39;102127.03;;;2.24;100.00
71361;BME280;59166;48.908;1.870;2023-02-13T01:34:39;102135.69;;;2.26;100.00
71361;BME280;59166;48.908;1.870;2023-02-13T01:39:40;102130.06;;;2.29;100.00
71361;BME280;59166;48.908;1.870;2023-02-13T01:44:50;102140.22;;;2.25;100.00
71361;BME280;59166;48.908;1.870;2023-02-13T01:50:02;102133.53;;;2.21;100.00
71361;BME280;59166;48.908;1.870;2023-02-13T01:55:04;102135.50;;;2.19;100.00
71361;BME280;59166;48.908;1.870;2023-02-13T02:00:10;102133.88;;;2.18;100.00
71361;BME280;59166;48.908;1.870;2023-02-13T02:05:11;102131.66;;;2.13;100.00
71361;BME280;59166;48.908;1.870;2023-02-13T02:10:15;102137.47;;;2.09;100.00
71361;BME280;59166;48.908;1.870;2023-02-13T02:15:17;102129.66;;;2.07;100.00
71361;BME280;59166;48.908;1.870;2023-02-13T02:20:27;102137.66;;;2.07;100.00
71361;BME280;59166;48.908;1.870;2023-02-13T02:26:08;102138.13;;;2.03;100.00
71361;BME280;59166;48.908;1.870;2023-02-13T02:36:51;102136.88;;;1.81;100.00
71361;BME280;59166;48.908;1.870;2023-02-13T02:42:01;102131.47;;;1.73;100.00
71361;BME280;59166;48.908;1.870;2023-02-13T02:47:17;102130.75;;;1.63;100.00
71361;BME280;59166;48.908;1.870;2023-02-13T02:52:28;102120.03;;;1.55;100.00
71361;BME280;59166;48.908;1.870;2023-02-13T02:57:32;102115.03;;;1.52;100.00
71361;BME280;59166;48.908;1.870;2023-02-13T03:02:33;102106.72;;;1.55;100.00
71361;BME280;59166;48.908;1.870;2023-02-13T03:07:36;102107.88;;;1.52;100.00
71361;BME280;59166;48.908;1.870;2023-02-13T03:12:39;102104.69;;;1.49;100.00
71361;BME280;59166;48.908;1.870;2023-02-13T03:17:41;102102.16;;;1.39;100.00
71361;BME280;59166;48.908;1.870;2023-02-13T03:22:55;102113.03;;;1.28;100.00
71361;BME280;59166;48.908;1.870;2023-02-13T03:28:05;102112.09;;;1.11;100.00
71361;BME280;59166;48.908;1.870;2023-02-13T03:33:19;102109.16;;;0.97;100.00
71361;BME280;59166;48.908;1.870;2023-02-13T03:38:28;102105.66;;;0.96;100.00
71361;BME280;59166;48.908;1.870;2023-02-13T03:43:36;102113.66;;;0.96;100.00
71361;BME280;59166;48.908;1.870;2023-02-13T03:48:39;102112.03;;;1.03;100.00
71361;BME280;59166;48.908;1.870;2023-02-13T03:53:45;102109.91;;;1.07;100.00
71361;BME280;59166;48.908;1.870;2023-02-13T03:58:50;102115.75;;;1.10;100.00
71361;BME280;59166;48.908;1.870;2023-02-13T04:04:02;102121.34;;;1.25;100.00
71361;BME280;59166;48.908;1.870;2023-02-13T04:09:06;102125.78;;;1.17;100.00
71361;BME280;59166;48.908;1.870;2023-02-13T04:14:09;102126.75;;;1.16;100.00
71361;BME280;59166;48.908;1.870;2023-02-13T04:19:14;102122.63;;;1.21;100.00
71361;BME280;59166;48.908;1.870;2023-02-13T04:24:16;102117.31;;;1.21;100.00
71361;BME280;59166;48.908;1.870;2023-02-13T04:29:17;102114.13;;;1.18;100.00
71361;BME280;59166;48.908;1.870;2023-02-13T04:34:17;102110.78;;;1.16;100.00
71361;BME280;59166;48.908;1.870;2023-02-13T04:39:20;102114.44;;;1.15;100.00
71361;BME280;59166;48.908;1.870;2023-02-13T04:44:20;102113.09;;;1.10;100.00
71361;BME280;59166;48.908;1.870;2023-02-13T04:49:21;102121.09;;;1.10;100.00
71361;BME280;59166;48.908;1.870;2023-02-13T04:54:23;102116.03;;;1.07;100.00
71361;BME280;59166;48.908;1.870;2023-02-13T04:59:23;102115.00;;;1.00;100.00
71361;BME280;59166;48.908;1.870;2023-02-13T05:04:24;102117.16;;;0.97;100.00
71361;BME280;59166;48.908;1.870;2023-02-13T05:09:26;102111.97;;;0.95;100.00
71361;BME280;59166;48.908;1.870;2023-02-13T05:14:27;102109.53;;;1.02;100.00
71361;BME280;59166;48.908;1.870;2023-02-13T05:19:27;102108.84;;;1.00;100.00
71361;BME280;59166;48.908;1.870;2023-02-13T05:24:29;102115.78;;;0.93;100.00
71361;BME280;59166;48.908;1.870;2023-02-13T05:29:30;102110.06;;;0.88;100.00
71361;BME280;59166;48.908;1.870;2023-02-13T05:34:31;102112.81;;;0.78;100.00
71361;BME280;59166;48.908;1.870;2023-02-13T05:39:33;102116.22;;;0.71;100.00
71361;BME280;59166;48.908;1.870;2023-02-13T05:44:33;102113.63;;;0.61;100.00
71361;BME280;59166;48.908;1.870;2023-02-13T05:49:34;102107.78;;;0.57;100.00
71361;BME280;59166;48.908;1.870;2023-02-13T05:54:36;102103.00;;;0.61;100.00
71361;BME280;59166;48.908;1.870;2023-02-13T05:59:37;102103.69;;;0.45;100.00
71361;BME280;59166;48.908;1.870;2023-02-13T06:04:37;102108.78;;;0.39;100.00
71361;BME280;59166;48.908;1.870;2023-02-13T06:09:39;102106.78;;;0.41;100.00
71361;BME280;59166;48.908;1.870;2023-02-13T06:14:40;102102.22;;;0.51;100.00
71361;BME280;59166;48.908;1.870;2023-02-13T06:19:41;102099.19;;;0.81;100.00
71361;BME280;59166;48.908;1.870;2023-02-13T06:24:43;102104.69;;;0.62;100.00
71361;BME280;59166;48.908;1.870;2023-02-13T06:29:43;102103.19;;;0.15;100.00
71361;BME280;59166;48.908;1.870;2023-02-13T06:34:44;102106.00;;;-0.24;100.00
71361;BME280;59166;48.908;1.870;2023-02-13T06:39:46;102111.56;;;-0.54;100.00
71361;BME280;59166;48.908;1.870;2023-02-13T06:44:47;102126.13;;;-0.68;100.00
71361;BME280;59166;48.908;1.870;2023-02-13T06:49:48;102124.03;;;-0.64;100.00
71361;BME280;59166;48.908;1.870;2023-02-13T06:54:50;102130.44;;;-0.57;100.00
71361;BME280;59166;48.908;1.870;2023-02-13T06:59:51;102133.81;;;-0.55;100.00
71361;BME280;59166;48.908;1.870;2023-02-13T07:04:52;102134.63;;;-0.45;100.00
71361;BME280;59166;48.908;1.870;2023-02-13T07:09:55;102135.41;;;-0.35;100.00
71361;BME280;59166;48.908;1.870;2023-02-13T07:14:56;102133.13;;;-0.20;100.00
71361;BME280;59166;48.908;1.870;2023-02-13T07:19:57;102139.09;;;-0.09;100.00
71361;BME280;59166;48.908;1.870;2023-02-13T07:24:59;102139.19;;;-0.01;100.00
71361;BME280;59166;48.908;1.870;2023-02-13T07:30:00;102139.88;;;0.01;100.00
71361;BME280;59166;48.908;1.870;2023-02-13T07:35:01;102147.44;;;-0.04;100.00
71361;BME280;59166;48.908;1.870;2023-02-13T07:40:04;102149.16;;;-0.12;100.00
71361;BME280;59166;48.908;1.870;2023-02-13T07:45:05;102154.91;;;-0.17;100.00
71361;BME280;59166;48.908;1.870;2023-02-13T07:50:07;102148.28;;;-0.03;100.00
71361;BME280;59166;48.908;1.870;2023-02-13T07:55:09;102156.06;;;0.08;100.00
71361;BME280;59166;48.908;1.870;2023-02-13T08:00:11;102162.72;;;0.22;100.00
71361;BME280;59166;48.908;1.870;2023-02-13T08:05:11;102164.78;;;0.28;100.00
71361;BME280;59166;48.908;1.870;2023-02-13T08:10:14;102175.91;;;0.41;100.00
71361;BME280;59166;48.908;1.870;2023-02-13T08:15:15;102181.41;;;0.57;100.00
71361;BME280;59166;48.908;1.870;2023-02-13T08:20:16;102178.94;;;0.73;100.00
71361;BME280;59166;48.908;1.870;2023-02-13T08:25:18;102181.13;;;0.95;100.00
71361;BME280;59166;48.908;1.870;2023-02-13T08:30:19;102180.63;;;1.09;100.00
71361;BME280;59166;48.908;1.870;2023-02-13T08:35:20;102190.19;;;1.02;100.00
71361;BME280;59166;48.908;1.870;2023-02-13T08:40:23;102198.53;;;1.07;100.00
71361;BME280;59166;48.908;1.870;2023-02-13T08:45:24;102197.56;;;1.08;100.00
71361;BME280;59166;48.908;1.870;2023-02-13T08:50:25;102196.63;;;1.18;100.00
71361;BME280;59166;48.908;1.870;2023-02-13T08:55:28;102192.75;;;1.12;100.00
71361;BME280;59166;48.908;1.870;2023-02-13T09:00:29;102208.19;;;1.08;100.00
71361;BME280;59166;48.908;1.870;2023-02-13T09:05:30;102209.13;;;1.17;100.00
71361;BME280;59166;48.908;1.870;2023-02-13T09:10:33;102208.44;;;1.58;100.00
71361;BME280;59166;48.908;1.870;2023-02-13T09:15:37;102203.19;;;1.92;100.00
71361;BME280;59166;48.908;1.870;2023-02-13T09:20:38;102207.09;;;2.32;100.00
71361;BME280;59166;48.908;1.870;2023-02-13T09:25:40;102199.72;;;2.76;100.00
71361;BME280;59166;48.908;1.870;2023-02-13T09:30:40;102204.31;;;3.32;100.00
71361;BME280;59166;48.908;1.870;2023-02-13T09:35:41;102201.13;;;3.77;100.00
71361;BME280;59166;48.908;1.870;2023-02-13T09:40:47;102200.81;;;4.27;100.00
71361;BME280;59166;48.908;1.870;2023-02-13T09:45:49;102201.34;;;4.61;100.00
71361;BME280;59166;48.908;1.870;2023-02-13T09:50:51;102203.22;;;4.83;100.00
71361;BME280;59166;48.908;1.870;2023-02-13T09:56:02;102203.66;;;5.17;100.00
71361;BME280;59166;48.908;1.870;2023-02-13T10:01:16;102201.56;;;5.50;100.00
71361;BME280;59166;48.908;1.870;2023-02-13T10:06:23;102197.66;;;5.75;100.00
71361;BME280;59166;48.908;1.870;2023-02-13T10:12:05;102195.09;;;5.97;100.00
71361;BME280;59166;48.908;1.870;2023-02-13T10:17:11;102193.63;;;6.23;100.00
71361;BME280;59166;48.908;1.870;2023-02-13T10:22:16;102200.09;;;6.44;100.00
71361;BME280;59166;48.908;1.870;2023-02-13T10:27:21;102189.78;;;6.62;100.00
71361;BME280;59166;48.908;1.870;2023-02-13T10:32:26;102190.53;;;6.70;100.00
71361;BME280;59166;48.908;1.870;2023-02-13T10:37:28;102183.25;;;6.86;100.00
71361;BME280;59166;48.908;1.870;2023-02-13T10:42:37;102172.75;;;7.05;100.00
71361;BME280;59166;48.908;1.870;2023-02-13T10:47:53;102180.78;;;7.26;100.00
71361;BME280;59166;48.908;1.870;2023-02-13T10:53:05;102181.84;;;7.53;100.00
71361;BME280;59166;48.908;1.870;2023-02-13T10:58:17;102179.59;;;7.85;98.99
71361;BME280;59166;48.908;1.870;2023-02-13T11:03:21;102181.88;;;8.15;98.08
71361;BME280;59166;48.908;1.870;2023-02-13T11:08:25;102175.44;;;8.51;96.03
71361;BME280;59166;48.908;1.870;2023-02-13T11:13:29;102174.66;;;8.70;94.93
71361;BME280;59166;48.908;1.870;2023-02-13T11:18:31;102167.84;;;8.74;94.00
71361;BME280;59166;48.908;1.870;2023-02-13T11:23:36;102155.91;;;8.96;92.36
71361;BME280;59166;48.908;1.870;2023-02-13T11:28:46;102154.06;;;9.23;92.64
71361;BME280;59166;48.908;1.870;2023-02-13T11:33:47;102150.53;;;9.42;90.50
71361;BME280;59166;48.908;1.870;2023-02-13T11:38:56;102141.81;;;9.66;87.93
71361;BME280;59166;48.908;1.870;2023-02-13T11:44:00;102132.22;;;9.97;86.58
71361;BME280;59166;48.908;1.870;2023-02-13T11:49:03;102128.66;;;10.09;83.22
71361;BME280;59166;48.908;1.870;2023-02-13T11:54:04;102127.34;;;10.31;81.25
71361;BME280;59166;48.908;1.870;2023-02-13T11:59:12;102115.59;;;10.51;81.64
71361;BME280;59166;48.908;1.870;2023-02-13T12:04:14;102111.59;;;10.66;79.90
71361;BME280;59166;48.908;1.870;2023-02-13T12:09:15;102107.81;;;10.74;79.87
71361;BME280;59166;48.908;1.870;2023-02-13T12:14:20;102105.72;;;10.76;79.40
71361;BME280;59166;48.908;1.870;2023-02-13T12:19:24;102099.94;;;10.66;79.91
71361;BME280;59166;48.908;1.870;2023-02-13T12:24:40;102086.47;;;10.59;80.68
71361;BME280;59166;48.908;1.870;2023-02-13T12:30:00;102086.06;;;10.56;80.14
71361;BME280;59166;48.908;1.870;2023-02-13T12:35:25;102089.38;;;10.58;79.29
71361;BME280;59166;48.908;1.870;2023-02-13T12:41:08;102086.88;;;10.63;78.71
71361;BME280;59166;48.908;1.870;2023-02-13T12:46:22;102088.25;;;10.72;79.24
71361;BME280;59166;48.908;1.870;2023-02-13T12:51:36;102074.28;;;10.81;78.77
71361;BME280;59166;48.908;1.870;2023-02-13T12:57:09;102074.22;;;10.88;77.65
71361;BME280;59166;48.908;1.870;2023-02-13T13:02:39;102074.97;;;11.02;77.23
71361;BME280;59166;48.908;1.870;2023-02-13T13:07:58;102060.56;;;11.08;76.59
71361;BME280;59166;48.908;1.870;2023-02-13T13:13:07;102068.19;;;11.17;76.98
71361;BME280;59166;48.908;1.870;2023-02-13T13:18:24;102065.38;;;11.30;75.31
71361;BME280;59166;48.908;1.870;2023-02-13T13:23:31;102068.47;;;11.34;75.71
71361;BME280;59166;48.908;1.870;2023-02-13T13:28:35;102051.41;;;11.33;74.71
71361;BME280;59166;48.908;1.870;2023-02-13T13:33:42;102049.22;;;11.42;75.15
71361;BME280;59166;48.908;1.870;2023-02-13T13:38:51;102040.88;;;11.44;73.63
71361;BME280;59166;48.908;1.870;2023-02-13T13:44:11;102043.28;;;11.52;75.70
71361;BME280;59166;48.908;1.870;2023-02-13T13:49:34;102039.09;;;11.56;73.94
71361;BME280;59166;48.908;1.870;2023-02-13T13:54:36;102029.47;;;11.60;73.48
71361;BME280;59166;48.908;1.870;2023-02-13T14:05:25;102033.97;;;11.66;73.46
71361;BME280;59166;48.908;1.870;2023-02-13T14:16:10;102033.25;;;11.77;73.58
71361;BME280;59166;48.908;1.870;2023-02-13T14:21:21;102025.50;;;11.80;72.14
71361;BME280;59166;48.908;1.870;2023-02-13T14:26:36;102018.72;;;11.89;72.50
71361;BME280;59166;48.908;1.870;2023-02-13T14:31:39;102017.88;;;11.89;72.49
71361;BME280;59166;48.908;1.870;2023-02-13T14:36:45;102030.53;;;11.95;72.08
71361;BME280;59166;48.908;1.870;2023-02-13T14:41:57;102035.94;;;11.95;72.04
71361;BME280;59166;48.908;1.870;2023-02-13T14:47:00;102034.97;;;11.89;72.80
71361;BME280;59166;48.908;1.870;2023-02-13T14:52:05;102028.28;;;11.92;73.21
71361;BME280;59166;48.908;1.870;2023-02-13T14:57:14;102027.22;;;11.93;73.02
71361;BME280;59166;48.908;1.870;2023-02-13T15:02:22;102021.34;;;11.96;72.60
71361;BME280;59166;48.908;1.870;2023-02-13T15:07:45;102020.28;;;11.97;72.70
71361;BME280;59166;48.908;1.870;2023-02-13T15:12:55;102023.66;;;11.93;72.97
71361;BME280;59166;48.908;1.870;2023-02-13T15:17:59;102016.16;;;11.95;73.31
71361;BME280;59166;48.908;1.870;2023-02-13T15:23:03;102016.16;;;11.95;72.45
71361;BME280;59166;48.908;1.870;2023-02-13T15:28:25;102027.06;;;11.88;72.00
71361;BME280;59166;48.908;1.870;2023-02-13T15:33:27;102026.25;;;11.87;73.13
71361;BME280;59166;48.908;1.870;2023-02-13T15:38:31;102023.09;;;11.91;73.60
71361;BME280;59166;48.908;1.870;2023-02-13T15:43:33;102017.88;;;11.89;74.08
71361;BME280;59166;48.908;1.870;2023-02-13T15:48:35;102014.22;;;11.83;73.20
71361;BME280;59166;48.908;1.870;2023-02-13T15:53:49;102011.38;;;11.78;73.25
71361;BME280;59166;48.908;1.870;2023-02-13T15:58:51;102013.91;;;11.73;72.91
71361;BME280;59166;48.908;1.870;2023-02-13T16:03:56;102021.66;;;11.70;73.75
71361;BME280;59166;48.908;1.870;2023-02-13T16:09:01;102024.81;;;11.67;73.85
71361;BME280;59166;48.908;1.870;2023-02-13T16:14:22;102019.69;;;11.59;74.49
71361;BME280;59166;48.908;1.870;2023-02-13T16:19:41;102011.88;;;11.51;74.21
71361;BME280;59166;48.908;1.870;2023-02-13T16:24:49;102012.78;;;11.45;74.22
71361;BME280;59166;48.908;1.870;2023-02-13T16:29:54;102021.19;;;11.36;73.92
71361;BME280;59166;48.908;1.870;2023-02-13T16:35:14;102025.69;;;11.24;73.90
71361;BME280;59166;48.908;1.870;2023-02-13T16:40:32;102022.44;;;11.16;74.33
71361;BME280;59166;48.908;1.870;2023-02-13T16:45:33;102028.53;;;11.05;74.60
71361;BME280;59166;48.908;1.870;2023-02-13T16:50:34;102025.50;;;10.95;74.85
71361;BME280;59166;48.908;1.870;2023-02-13T16:55:36;102022.47;;;10.84;75.25
71361;BME280;59166;48.908;1.870;2023-02-13T17:00:37;102020.69;;;10.72;75.76
71361;BME280;59166;48.908;1.870;2023-02-13T17:05:38;102030.09;;;10.63;75.56
71361;BME280;59166;48.908;1.870;2023-02-13T17:10:40;102032.91;;;10.50;76.40
71361;BME280;59166;48.908;1.870;2023-02-13T17:16:00;102032.59;;;10.33;76.44
71361;BME280;59166;48.908;1.870;2023-02-13T17:21:01;102031.59;;;10.21;77.10
71361;BME280;59166;48.908;1.870;2023-02-13T17:26:03;102035.59;;;10.12;77.44
71361;BME280;59166;48.908;1.870;2023-02-13T17:31:09;102041.88;;;9.99;77.34
71361;BME280;59166;48.908;1.870;2023-02-13T17:36:12;102040.72;;;9.82;77.63
71361;BME280;59166;48.908;1.870;2023-02-13T17:41:15;102046.94;;;9.76;77.61
71361;BME280;59166;48.908;1.870;2023-02-13T17:46:15;102050.50;;;9.63;78.21
71361;BME280;59166;48.908;1.870;2023-02-13T17:51:17;102051.97;;;9.53;77.67
71361;BME280;59166;48.908;1.870;2023-02-13T17:56:19;102052.00;;;9.46;77.68
71361;BME280;59166;48.908;1.870;2023-02-13T18:01:20;102058.47;;;9.39;77.81
71361;BME280;59166;48.908;1.870;2023-02-13T18:06:21;102063.44;;;9.35;77.93
71361;BME280;59166;48.908;1.870;2023-02-13T18:11:23;102069.03;;;9.27;77.67
71361;BME280;59166;48.908;1.870;2023-02-13T18:16:24;102071.94;;;9.19;78.26
71361;BME280;59166;48.908;1.870;2023-02-13T18:21:25;102067.97;;;9.08;78.69
71361;BME280;59166;48.908;1.870;2023-02-13T18:26:27;102070.91;;;9.00;78.96
71361;BME280;59166;48.908;1.870;2023-02-13T18:31:28;102063.00;;;8.92;79.83
71361;BME280;59166;48.908;1.870;2023-02-13T18:36:29;102066.91;;;8.83;80.00
71361;BME280;59166;48.908;1.870;2023-02-13T18:41:32;102063.81;;;8.73;80.51
71361;BME280;59166;48.908;1.870;2023-02-13T18:46:33;102068.53;;;8.64;81.51
71361;BME280;59166;48.908;1.870;2023-02-13T18:51:34;102065.44;;;8.61;82.40
71361;BME280;59166;48.908;1.870;2023-02-13T18:56:37;102070.00;;;8.54;82.80
71361;BME280;59166;48.908;1.870;2023-02-13T19:01:38;102072.84;;;8.46;83.04
71361;BME280;59166;48.908;1.870;2023-02-13T19:06:40;102074.28;;;8.42;83.00
71361;BME280;59166;48.908;1.870;2023-02-13T19:11:44;102069.72;;;8.36;83.46
71361;BME280;59166;48.908;1.870;2023-02-13T19:16:44;102077.56;;;8.30;83.54
71361;BME280;59166;48.908;1.870;2023-02-13T19:21:45;102070.94;;;8.26;82.93
71361;BME280;59166;48.908;1.870;2023-02-13T19:26:48;102072.97;;;8.18;83.32
71361;BME280;59166;48.908;1.870;2023-02-13T19:31:49;102077.31;;;8.12;83.43
71361;BME280;59166;48.908;1.870;2023-02-13T19:36:50;102068.38;;;8.05;84.13
71361;BME280;59166;48.908;1.870;2023-02-13T19:41:52;102076.59;;;7.97;84.27
71361;BME280;59166;48.908;1.870;2023-02-13T19:46:53;102080.75;;;7.93;84.82
71361;BME280;59166;48.908;1.870;2023-02-13T19:51:54;102077.19;;;7.86;85.05
71361;BME280;59166;48.908;1.870;2023-02-13T19:56:57;102075.25;;;7.80;84.96
71361;BME280;59166;48.908;1.870;2023-02-13T20:01:58;102078.56;;;7.75;84.60
71361;BME280;59166;48.908;1.870;2023-02-13T20:06:58;102082.50;;;7.73;84.93
71361;BME280;59166;48.908;1.870;2023-02-13T20:12:01;102079.56;;;7.68;85.25
71361;BME280;59166;48.908;1.870;2023-02-13T20:17:02;102084.91;;;7.61;85.49
71361;BME280;59166;48.908;1.870;2023-02-13T20:22:03;102084.84;;;7.55;85.27
71361;BME280;59166;48.908;1.870;2023-02-13T20:27:05;102088.38;;;7.55;85.21
71361;BME280;59166;48.908;1.870;2023-02-13T20:32:06;102080.66;;;7.46;85.03
71361;BME280;59166;48.908;1.870;2023-02-13T20:37:08;102079.97;;;7.37;84.88
71361;BME280;59166;48.908;1.870;2023-02-13T20:42:11;102077.81;;;7.26;86.01
71361;BME280;59166;48.908;1.870;2023-02-13T20:47:12;102085.25;;;7.24;86.09
71361;BME280;59166;48.908;1.870;2023-02-13T20:52:13;102076.13;;;7.18;86.15
71361;BME280;59166;48.908;1.870;2023-02-13T20:57:15;102077.25;;;7.09;86.93
71361;BME280;59166;48.908;1.870;2023-02-13T21:02:16;102081.63;;;7.10;86.73
71361;BME280;59166;48.908;1.870;2023-02-13T21:07:17;102073.94;;;7.07;86.99
71361;BME280;59166;48.908;1.870;2023-02-13T21:12:20;102077.19;;;7.03;87.18
71361;BME280;59166;48.908;1.870;2023-02-13T21:17:22;102077.75;;;6.92;86.61
71361;BME280;59166;48.908;1.870;2023-02-13T21:22:23;102080.09;;;6.80;86.17
71361;BME280;59166;48.908;1.870;2023-02-13T21:27:25;102088.22;;;6.65;86.65
71361;BME280;59166;48.908;1.870;2023-02-13T21:32:26;102082.25;;;6.49;86.72
71361;BME280;59166;48.908;1.870;2023-02-13T21:37:28;102085.03;;;6.41;87.04
71361;BME280;59166;48.908;1.870;2023-02-13T21:42:30;102087.00;;;6.32;87.45
71361;BME280;59166;48.908;1.870;2023-02-13T21:47:31;102088.31;;;6.21;87.51
71361;BME280;59166;48.908;1.870;2023-02-13T21:52:33;102103.22;;;6.09;88.08
71361;BME280;59166;48.908;1.870;2023-02-13T21:57:36;102092.59;;;6.01;88.38
71361;BME280;59166;48.908;1.870;2023-02-13T22:02:37;102096.03;;;5.95;89.35
71361;BME280;59166;48.908;1.870;2023-02-13T22:07:42;102096.16;;;5.87;89.46
71361;BME280;59166;48.908;1.870;2023-02-13T22:12:54;102094.84;;;5.83;88.80
71361;BME280;59166;48.908;1.870;2023-02-13T22:17:56;102096.84;;;5.81;90.54
71361;BME280;59166;48.908;1.870;2023-02-13T22:22:57;102083.44;;;5.81;91.35
71361;BME280;59166;48.908;1.870;2023-02-13T22:28:00;102088.44;;;5.84;91.54
71361;BME280;59166;48.908;1.870;2023-02-13T22:33:01;102091.13;;;5.84;92.06
71361;BME280;59166;48.908;1.870;2023-02-13T22:38:02;102094.66;;;5.70;90.71
71361;BME280;59166;48.908;1.870;2023-02-13T22:43:05;102094.28;;;5.58;90.01
71361;BME280;59166;48.908;1.870;2023-02-13T22:48:26;102092.59;;;5.43;90.58
71361;BME280;59166;48.908;1.870;2023-02-13T22:53:30;102091.72;;;5.28;90.98
71361;BME280;59166;48.908;1.870;2023-02-13T22:58:33;102082.19;;;5.10;91.06
71361;BME280;59166;48.908;1.870;2023-02-13T23:03:40;102083.63;;;4.98;91.58
71361;BME280;59166;48.908;1.870;2023-02-13T23:09:01;102085.00;;;4.94;91.10
71361;BME280;59166;48.908;1.870;2023-02-13T23:14:11;102081.09;;;4.82;91.96
71361;BME280;59166;48.908;1.870;2023-02-13T23:19:25;102082.97;;;4.73;94.86
71361;BME280;59166;48.908;1.870;2023-02-13T23:24:52;102079.91;;;4.62;94.11
71361;BME280;59166;48.908;1.870;2023-02-13T23:30:02;102074.84;;;4.67;95.49
71361;BME280;59166;48.908;1.870;2023-02-13T23:35:03;102077.81;;;4.72;95.06
71361;BME280;59166;48.908;1.870;2023-02-13T23:40:18;102069.97;;;4.70;93.80
71361;BME280;59166;48.908;1.870;2023-02-13T23:45:21;102070.47;;;4.66;93.88
71361;BME280;59166;48.908;1.870;2023-02-13T23:50:44;102062.16;;;4.61;94.01
71361;BME280;59166;48.908;1.870;2023-02-13T23:55:50;102064.72;;;4.54;95.44
